Terminal Aerodrome Forecast
Issued by NWS Wilmington, NC

Home | Current Version | Previous Version | Text Only | Print | Product List | Glossary On
Versions: 1 2 3 4 5 6 7 8 9 10 11 12 13 14 15 16 17 18 19 20 21 22 23 24
592
FTUS42 KILM 300559 CCA
TAFLBT
TAF COR
KLBT 300559Z 3006/0106 16006KT P6SM SKC
     FM300700 09004KT 4SM BR OVC007
     FM301500 09006KT 4SM -DZ OVC012
     FM302100 10006KT P6SM BKN050
     FM010000 10007KT P6SM OVC025
     FM010300 09005KT P6SM OVC007=

USA.gov is the U.S. government's official web portal to all federal, state and local government web resources and services.